sensor_id;sensor_type;location;lat;lon;timestamp;P1;durP1;ratioP1;P2;durP2;ratioP2
34890;SDS011;21103;51.358;12.412;2022-07-29T00:00:56;6.05;;;0.57;;
34890;SDS011;21103;51.358;12.412;2022-07-29T00:03:22;2.35;;;0.73;;
34890;SDS011;21103;51.358;12.412;2022-07-29T00:05:48;2.60;;;1.02;;
34890;SDS011;21103;51.358;12.412;2022-07-29T00:08:13;5.60;;;0.80;;
34890;SDS011;21103;51.358;12.412;2022-07-29T00:10:40;5.15;;;0.93;;
34890;SDS011;21103;51.358;12.412;2022-07-29T00:13:06;4.38;;;0.80;;
34890;SDS011;21103;51.358;12.412;2022-07-29T00:15:31;8.57;;;1.08;;
34890;SDS011;21103;51.358;12.412;2022-07-29T00:17:57;2.97;;;1.10;;
34890;SDS011;21103;51.358;12.412;2022-07-29T00:20:22;1.15;;;0.60;;
34890;SDS011;21103;51.358;12.412;2022-07-29T00:22:48;3.47;;;0.60;;
34890;SDS011;21103;51.358;12.412;2022-07-29T00:25:13;3.50;;;0.90;;
34890;SDS011;21103;51.358;12.412;2022-07-29T00:27:39;2.17;;;0.88;;
34890;SDS011;21103;51.358;12.412;2022-07-29T00:30:05;3.35;;;0.80;;
34890;SDS011;21103;51.358;12.412;2022-07-29T00:32:31;3.58;;;0.60;;
34890;SDS011;21103;51.358;12.412;2022-07-29T00:34:57;1.90;;;0.80;;
34890;SDS011;21103;51.358;12.412;2022-07-29T00:37:41;4.78;;;1.00;;
34890;SDS011;21103;51.358;12.412;2022-07-29T00:40:07;1.92;;;0.70;;
34890;SDS011;21103;51.358;12.412;2022-07-29T00:42:43;1.38;;;0.60;;
34890;SDS011;21103;51.358;12.412;2022-07-29T00:45:10;1.90;;;0.75;;
34890;SDS011;21103;51.358;12.412;2022-07-29T00:47:36;4.43;;;0.80;;
34890;SDS011;21103;51.358;12.412;2022-07-29T00:50:02;3.10;;;0.52;;
34890;SDS011;21103;51.358;12.412;2022-07-29T00:52:29;1.38;;;0.50;;
34890;SDS011;21103;51.358;12.412;2022-07-29T00:54:54;1.17;;;0.50;;
34890;SDS011;21103;51.358;12.412;2022-07-29T00:57:20;3.25;;;0.63;;
34890;SDS011;21103;51.358;12.412;2022-07-29T00:59:46;6.80;;;0.88;;
34890;SDS011;21103;51.358;12.412;2022-07-29T01:02:11;1.48;;;0.77;;
34890;SDS011;21103;51.358;12.412;2022-07-29T01:04:37;2.75;;;0.73;;
34890;SDS011;21103;51.358;12.412;2022-07-29T01:07:03;1.65;;;0.90;;
34890;SDS011;21103;51.358;12.412;2022-07-29T01:09:31;2.53;;;0.93;;
34890;SDS011;21103;51.358;12.412;2022-07-29T01:11:57;1.98;;;0.90;;
34890;SDS011;21103;51.358;12.412;2022-07-29T01:14:24;3.80;;;0.80;;
34890;SDS011;21103;51.358;12.412;2022-07-29T01:16:51;2.20;;;0.90;;
34890;SDS011;21103;51.358;12.412;2022-07-29T01:30:42;2.50;;;0.60;;
34890;SDS011;21103;51.358;12.412;2022-07-29T01:33:11;2.72;;;0.68;;
34890;SDS011;21103;51.358;12.412;2022-07-29T01:36:01;3.30;;;1.17;;
34890;SDS011;21103;51.358;12.412;2022-07-29T01:38:32;7.75;;;1.05;;
34890;SDS011;21103;51.358;12.412;2022-07-29T01:41:05;4.10;;;1.00;;
34890;SDS011;21103;51.358;12.412;2022-07-29T01:44:35;2.40;;;1.02;;
34890;SDS011;21103;51.358;12.412;2022-07-29T01:46:45;4.63;;;1.40;;
34890;SDS011;21103;51.358;12.412;2022-07-29T01:49:19;2.70;;;0.93;;
34890;SDS011;21103;51.358;12.412;2022-07-29T01:51:50;2.37;;;0.77;;
34890;SDS011;21103;51.358;12.412;2022-07-29T01:57:00;3.17;;;1.00;;
34890;SDS011;21103;51.358;12.412;2022-07-29T01:59:28;3.22;;;0.70;;
34890;SDS011;21103;51.358;12.412;2022-07-29T02:01:56;4.15;;;0.95;;
34890;SDS011;21103;51.358;12.412;2022-07-29T02:04:23;4.68;;;1.27;;
34890;SDS011;21103;51.358;12.412;2022-07-29T02:06:50;3.38;;;0.88;;
34890;SDS011;21103;51.358;12.412;2022-07-29T02:09:19;3.05;;;0.90;;
34890;SDS011;21103;51.358;12.412;2022-07-29T02:11:48;3.38;;;1.45;;
34890;SDS011;21103;51.358;12.412;2022-07-29T02:14:17;3.55;;;1.20;;
34890;SDS011;21103;51.358;12.412;2022-07-29T02:16:45;4.30;;;1.20;;
34890;SDS011;21103;51.358;12.412;2022-07-29T02:19:12;3.15;;;1.45;;
34890;SDS011;21103;51.358;12.412;2022-07-29T02:21:40;3.80;;;1.00;;
34890;SDS011;21103;51.358;12.412;2022-07-29T02:24:07;5.45;;;1.00;;
34890;SDS011;21103;51.358;12.412;2022-07-29T02:26:36;1.83;;;0.85;;
34890;SDS011;21103;51.358;12.412;2022-07-29T02:29:04;2.67;;;0.88;;
34890;SDS011;21103;51.358;12.412;2022-07-29T02:31:32;2.90;;;1.02;;
34890;SDS011;21103;51.358;12.412;2022-07-29T02:33:59;3.03;;;0.80;;
34890;SDS011;21103;51.358;12.412;2022-07-29T02:36:26;4.70;;;0.95;;
34890;SDS011;21103;51.358;12.412;2022-07-29T02:38:55;2.85;;;1.20;;
34890;SDS011;21103;51.358;12.412;2022-07-29T02:41:29;2.58;;;0.90;;
34890;SDS011;21103;51.358;12.412;2022-07-29T02:44:09;2.97;;;0.70;;
34890;SDS011;21103;51.358;12.412;2022-07-29T02:46:37;2.38;;;0.80;;
34890;SDS011;21103;51.358;12.412;2022-07-29T02:49:15;5.32;;;1.10;;
34890;SDS011;21103;51.358;12.412;2022-07-29T02:51:53;5.05;;;0.70;;
34890;SDS011;21103;51.358;12.412;2022-07-29T02:54:22;3.55;;;1.05;;
34890;SDS011;21103;51.358;12.412;2022-07-29T02:56:57;4.32;;;0.77;;
34890;SDS011;21103;51.358;12.412;2022-07-29T02:59:26;4.07;;;0.80;;
34890;SDS011;21103;51.358;12.412;2022-07-29T03:01:55;1.85;;;0.80;;
34890;SDS011;21103;51.358;12.412;2022-07-29T03:04:24;2.97;;;1.02;;
34890;SDS011;21103;51.358;12.412;2022-07-29T03:06:53;2.97;;;0.88;;
34890;SDS011;21103;51.358;12.412;2022-07-29T03:09:19;4.53;;;1.17;;
34890;SDS011;21103;51.358;12.412;2022-07-29T03:11:46;3.22;;;0.82;;
34890;SDS011;21103;51.358;12.412;2022-07-29T03:14:12;2.80;;;0.98;;
34890;SDS011;21103;51.358;12.412;2022-07-29T03:16:38;1.88;;;0.80;;
34890;SDS011;21103;51.358;12.412;2022-07-29T03:19:04;2.10;;;1.08;;
34890;SDS011;21103;51.358;12.412;2022-07-29T03:21:30;3.10;;;0.85;;
34890;SDS011;21103;51.358;12.412;2022-07-29T03:23:56;5.40;;;1.20;;
34890;SDS011;21103;51.358;12.412;2022-07-29T03:26:21;2.17;;;0.90;;
34890;SDS011;21103;51.358;12.412;2022-07-29T03:28:47;1.48;;;0.90;;
34890;SDS011;21103;51.358;12.412;2022-07-29T03:31:12;3.78;;;0.70;;
34890;SDS011;21103;51.358;12.412;2022-07-29T03:33:38;4.00;;;0.75;;
34890;SDS011;21103;51.358;12.412;2022-07-29T03:36:03;1.30;;;0.68;;
34890;SDS011;21103;51.358;12.412;2022-07-29T03:38:29;4.88;;;0.80;;
34890;SDS011;21103;51.358;12.412;2022-07-29T03:41:00;2.97;;;0.68;;
34890;SDS011;21103;51.358;12.412;2022-07-29T03:43:29;2.92;;;0.80;;
34890;SDS011;21103;51.358;12.412;2022-07-29T03:45:57;1.65;;;0.70;;
34890;SDS011;21103;51.358;12.412;2022-07-29T03:48:25;5.55;;;1.02;;
34890;SDS011;21103;51.358;12.412;2022-07-29T03:50:54;2.30;;;0.50;;
34890;SDS011;21103;51.358;12.412;2022-07-29T03:53:20;4.75;;;1.67;;
34890;SDS011;21103;51.358;12.412;2022-07-29T03:55:46;3.05;;;0.90;;
34890;SDS011;21103;51.358;12.412;2022-07-29T03:58:17;3.75;;;0.70;;
34890;SDS011;21103;51.358;12.412;2022-07-29T04:00:43;1.90;;;0.90;;
34890;SDS011;21103;51.358;12.412;2022-07-29T04:03:10;3.55;;;0.88;;
34890;SDS011;21103;51.358;12.412;2022-07-29T04:05:37;4.13;;;0.75;;
34890;SDS011;21103;51.358;12.412;2022-07-29T04:08:02;4.53;;;0.82;;
34890;SDS011;21103;51.358;12.412;2022-07-29T04:10:28;4.05;;;0.98;;
34890;SDS011;21103;51.358;12.412;2022-07-29T04:12:53;3.65;;;0.80;;
34890;SDS011;21103;51.358;12.412;2022-07-29T04:15:19;2.05;;;0.90;;
34890;SDS011;21103;51.358;12.412;2022-07-29T04:17:44;2.22;;;0.95;;
34890;SDS011;21103;51.358;12.412;2022-07-29T04:20:10;3.53;;;1.20;;
34890;SDS011;21103;51.358;12.412;2022-07-29T04:22:38;5.47;;;1.08;;
34890;SDS011;21103;51.358;12.412;2022-07-29T04:25:04;4.13;;;1.40;;
34890;SDS011;21103;51.358;12.412;2022-07-29T04:27:29;4.55;;;1.70;;
34890;SDS011;21103;51.358;12.412;2022-07-29T04:29:55;3.33;;;0.75;;
34890;SDS011;21103;51.358;12.412;2022-07-29T04:32:21;3.85;;;0.80;;
34890;SDS011;21103;51.358;12.412;2022-07-29T04:34:46;2.45;;;0.93;;
34890;SDS011;21103;51.358;12.412;2022-07-29T04:37:12;2.72;;;0.95;;
34890;SDS011;21103;51.358;12.412;2022-07-29T04:39:37;2.85;;;1.02;;
34890;SDS011;21103;51.358;12.412;2022-07-29T04:42:03;3.22;;;1.05;;
34890;SDS011;21103;51.358;12.412;2022-07-29T04:44:28;3.47;;;1.05;;
34890;SDS011;21103;51.358;12.412;2022-07-29T04:46:54;3.22;;;1.30;;
34890;SDS011;21103;51.358;12.412;2022-07-29T04:49:20;4.72;;;0.90;;
34890;SDS011;21103;51.358;12.412;2022-07-29T04:51:45;3.38;;;1.10;;
34890;SDS011;21103;51.358;12.412;2022-07-29T04:54:11;2.75;;;0.90;;
34890;SDS011;21103;51.358;12.412;2022-07-29T04:56:36;2.80;;;0.93;;
34890;SDS011;21103;51.358;12.412;2022-07-29T04:59:02;4.38;;;0.93;;
34890;SDS011;21103;51.358;12.412;2022-07-29T05:01:27;4.75;;;1.17;;
34890;SDS011;21103;51.358;12.412;2022-07-29T05:03:52;3.47;;;1.50;;
34890;SDS011;21103;51.358;12.412;2022-07-29T05:06:18;3.45;;;0.88;;
34890;SDS011;21103;51.358;12.412;2022-07-29T05:08:43;2.80;;;1.20;;
34890;SDS011;21103;51.358;12.412;2022-07-29T05:11:09;6.53;;;1.20;;
34890;SDS011;21103;51.358;12.412;2022-07-29T05:13:35;3.75;;;0.98;;
34890;SDS011;21103;51.358;12.412;2022-07-29T05:16:00;5.97;;;0.80;;
34890;SDS011;21103;51.358;12.412;2022-07-29T05:18:26;3.97;;;1.00;;
34890;SDS011;21103;51.358;12.412;2022-07-29T05:20:52;4.30;;;1.40;;
34890;SDS011;21103;51.358;12.412;2022-07-29T05:23:17;6.38;;;1.70;;
34890;SDS011;21103;51.358;12.412;2022-07-29T05:25:43;4.35;;;1.40;;
34890;SDS011;21103;51.358;12.412;2022-07-29T05:28:08;3.92;;;1.20;;
34890;SDS011;21103;51.358;12.412;2022-07-29T05:30:34;7.10;;;1.10;;
34890;SDS011;21103;51.358;12.412;2022-07-29T05:32:59;3.58;;;1.00;;
34890;SDS011;21103;51.358;12.412;2022-07-29T05:35:25;8.75;;;1.25;;
34890;SDS011;21103;51.358;12.412;2022-07-29T05:37:50;6.72;;;1.42;;
34890;SDS011;21103;51.358;12.412;2022-07-29T05:40:15;3.10;;;1.08;;
34890;SDS011;21103;51.358;12.412;2022-07-29T05:42:41;7.65;;;1.77;;
34890;SDS011;21103;51.358;12.412;2022-07-29T05:45:07;3.17;;;1.17;;
34890;SDS011;21103;51.358;12.412;2022-07-29T05:47:33;4.88;;;1.02;;
34890;SDS011;21103;51.358;12.412;2022-07-29T05:49:59;5.88;;;1.10;;
34890;SDS011;21103;51.358;12.412;2022-07-29T05:52:24;7.60;;;1.00;;
34890;SDS011;21103;51.358;12.412;2022-07-29T05:54:50;5.15;;;1.08;;
34890;SDS011;21103;51.358;12.412;2022-07-29T05:57:16;4.60;;;1.20;;
34890;SDS011;21103;51.358;12.412;2022-07-29T05:59:42;4.28;;;1.52;;
34890;SDS011;21103;51.358;12.412;2022-07-29T06:02:08;5.72;;;1.30;;
34890;SDS011;21103;51.358;12.412;2022-07-29T06:04:33;4.60;;;1.63;;
34890;SDS011;21103;51.358;12.412;2022-07-29T06:06:59;4.32;;;1.10;;
34890;SDS011;21103;51.358;12.412;2022-07-29T06:09:24;4.53;;;1.30;;
34890;SDS011;21103;51.358;12.412;2022-07-29T06:11:50;7.45;;;1.30;;
34890;SDS011;21103;51.358;12.412;2022-07-29T06:14:17;3.60;;;1.42;;
34890;SDS011;21103;51.358;12.412;2022-07-29T06:16:42;3.53;;;1.45;;
34890;SDS011;21103;51.358;12.412;2022-07-29T06:19:08;4.85;;;1.52;;
34890;SDS011;21103;51.358;12.412;2022-07-29T06:21:33;9.07;;;1.88;;
34890;SDS011;21103;51.358;12.412;2022-07-29T06:23:59;6.85;;;1.55;;
34890;SDS011;21103;51.358;12.412;2022-07-29T06:26:24;4.97;;;1.90;;
34890;SDS011;21103;51.358;12.412;2022-07-29T06:28:50;6.70;;;1.52;;
34890;SDS011;21103;51.358;12.412;2022-07-29T06:31:15;8.50;;;1.73;;
34890;SDS011;21103;51.358;12.412;2022-07-29T06:33:41;3.45;;;1.33;;
34890;SDS011;21103;51.358;12.412;2022-07-29T06:36:06;7.63;;;1.55;;
34890;SDS011;21103;51.358;12.412;2022-07-29T06:38:32;5.38;;;1.55;;
34890;SDS011;21103;51.358;12.412;2022-07-29T06:40:59;2.33;;;1.10;;
34890;SDS011;21103;51.358;12.412;2022-07-29T06:43:26;5.20;;;1.17;;
34890;SDS011;21103;51.358;12.412;2022-07-29T06:46:03;4.18;;;1.23;;
34890;SDS011;21103;51.358;12.412;2022-07-29T06:48:31;7.90;;;1.67;;
34890;SDS011;21103;51.358;12.412;2022-07-29T06:50:58;7.15;;;1.48;;
34890;SDS011;21103;51.358;12.412;2022-07-29T06:53:24;3.63;;;1.45;;
34890;SDS011;21103;51.358;12.412;2022-07-29T06:55:50;11.93;;;1.80;;
34890;SDS011;21103;51.358;12.412;2022-07-29T06:58:16;5.78;;;1.42;;
34890;SDS011;21103;51.358;12.412;2022-07-29T07:00:45;10.02;;;2.40;;
34890;SDS011;21103;51.358;12.412;2022-07-29T07:03:11;4.65;;;1.50;;
34890;SDS011;21103;51.358;12.412;2022-07-29T07:05:36;6.32;;;1.20;;
34890;SDS011;21103;51.358;12.412;2022-07-29T07:08:02;2.92;;;1.33;;
34890;SDS011;21103;51.358;12.412;2022-07-29T07:10:28;3.50;;;1.60;;
34890;SDS011;21103;51.358;12.412;2022-07-29T07:12:54;3.63;;;1.50;;
34890;SDS011;21103;51.358;12.412;2022-07-29T07:15:19;5.53;;;1.50;;
34890;SDS011;21103;51.358;12.412;2022-07-29T07:17:47;4.50;;;1.15;;
34890;SDS011;21103;51.358;12.412;2022-07-29T07:20:13;2.90;;;1.42;;
34890;SDS011;21103;51.358;12.412;2022-07-29T07:22:39;5.80;;;1.70;;
34890;SDS011;21103;51.358;12.412;2022-07-29T07:25:05;5.63;;;1.60;;
34890;SDS011;21103;51.358;12.412;2022-07-29T07:27:31;4.18;;;1.30;;
34890;SDS011;21103;51.358;12.412;2022-07-29T07:29:56;8.73;;;3.28;;
34890;SDS011;21103;51.358;12.412;2022-07-29T07:32:22;9.77;;;1.50;;
34890;SDS011;21103;51.358;12.412;2022-07-29T07:34:47;4.68;;;1.80;;
34890;SDS011;21103;51.358;12.412;2022-07-29T07:37:13;3.58;;;1.67;;
34890;SDS011;21103;51.358;12.412;2022-07-29T07:39:39;7.43;;;1.80;;
34890;SDS011;21103;51.358;12.412;2022-07-29T07:42:05;7.57;;;1.77;;
34890;SDS011;21103;51.358;12.412;2022-07-29T07:44:31;8.18;;;2.00;;
34890;SDS011;21103;51.358;12.412;2022-07-29T07:46:56;3.72;;;1.52;;
34890;SDS011;21103;51.358;12.412;2022-07-29T07:49:22;5.75;;;1.83;;
34890;SDS011;21103;51.358;12.412;2022-07-29T07:51:48;5.15;;;2.33;;
34890;SDS011;21103;51.358;12.412;2022-07-29T07:54:13;10.95;;;2.28;;
34890;SDS011;21103;51.358;12.412;2022-07-29T07:56:39;4.80;;;1.95;;
34890;SDS011;21103;51.358;12.412;2022-07-29T07:59:04;6.25;;;1.77;;
34890;SDS011;21103;51.358;12.412;2022-07-29T08:01:29;5.63;;;1.88;;
34890;SDS011;21103;51.358;12.412;2022-07-29T08:03:55;4.80;;;1.40;;
34890;SDS011;21103;51.358;12.412;2022-07-29T08:06:20;14.65;;;1.77;;
34890;SDS011;21103;51.358;12.412;2022-07-29T08:08:46;5.93;;;1.90;;
34890;SDS011;21103;51.358;12.412;2022-07-29T08:11:11;5.53;;;2.00;;
34890;SDS011;21103;51.358;12.412;2022-07-29T08:13:37;8.48;;;1.67;;
34890;SDS011;21103;51.358;12.412;2022-07-29T08:16:04;9.48;;;1.70;;
34890;SDS011;21103;51.358;12.412;2022-07-29T08:18:37;10.68;;;2.22;;
34890;SDS011;21103;51.358;12.412;2022-07-29T08:21:04;4.25;;;1.33;;
34890;SDS011;21103;51.358;12.412;2022-07-29T08:23:30;8.10;;;2.13;;
34890;SDS011;21103;51.358;12.412;2022-07-29T08:26:03;11.98;;;2.25;;
34890;SDS011;21103;51.358;12.412;2022-07-29T08:28:35;9.98;;;2.17;;
34890;SDS011;21103;51.358;12.412;2022-07-29T08:31:04;16.23;;;1.95;;
34890;SDS011;21103;51.358;12.412;2022-07-29T08:33:29;6.47;;;1.63;;
34890;SDS011;21103;51.358;12.412;2022-07-29T08:35:55;5.28;;;1.30;;
34890;SDS011;21103;51.358;12.412;2022-07-29T08:38:20;2.88;;;1.38;;
34890;SDS011;21103;51.358;12.412;2022-07-29T08:40:46;6.65;;;1.45;;
34890;SDS011;21103;51.358;12.412;2022-07-29T08:43:11;12.68;;;1.73;;
34890;SDS011;21103;51.358;12.412;2022-07-29T08:45:42;9.23;;;1.58;;
34890;SDS011;21103;51.358;12.412;2022-07-29T08:48:13;7.07;;;2.38;;
34890;SDS011;21103;51.358;12.412;2022-07-29T08:50:42;6.45;;;1.58;;
34890;SDS011;21103;51.358;12.412;2022-07-29T08:53:13;5.97;;;1.85;;
34890;SDS011;21103;51.358;12.412;2022-07-29T08:55:43;2.55;;;1.48;;
34890;SDS011;21103;51.358;12.412;2022-07-29T08:58:10;6.28;;;2.10;;
34890;SDS011;21103;51.358;12.412;2022-07-29T09:00:37;7.50;;;2.10;;
34890;SDS011;21103;51.358;12.412;2022-07-29T09:03:07;8.13;;;2.13;;
34890;SDS011;21103;51.358;12.412;2022-07-29T09:05:34;7.63;;;1.90;;
34890;SDS011;21103;51.358;12.412;2022-07-29T09:08:00;4.57;;;2.05;;
34890;SDS011;21103;51.358;12.412;2022-07-29T09:10:26;9.93;;;2.72;;
34890;SDS011;21103;51.358;12.412;2022-07-29T09:12:54;13.77;;;2.47;;
34890;SDS011;21103;51.358;12.412;2022-07-29T09:15:20;4.13;;;2.13;;
34890;SDS011;21103;51.358;12.412;2022-07-29T09:17:46;10.57;;;2.65;;
34890;SDS011;21103;51.358;12.412;2022-07-29T09:20:15;4.47;;;2.28;;
34890;SDS011;21103;51.358;12.412;2022-07-29T09:22:42;6.50;;;2.28;;
34890;SDS011;21103;51.358;12.412;2022-07-29T09:25:08;5.88;;;2.38;;
34890;SDS011;21103;51.358;12.412;2022-07-29T09:27:36;10.60;;;2.78;;
34890;SDS011;21103;51.358;12.412;2022-07-29T09:30:05;6.25;;;2.60;;
34890;SDS011;21103;51.358;12.412;2022-07-29T09:32:33;4.38;;;2.13;;
34890;SDS011;21103;51.358;12.412;2022-07-29T09:35:19;10.18;;;2.05;;
34890;SDS011;21103;51.358;12.412;2022-07-29T09:37:46;7.63;;;2.50;;
34890;SDS011;21103;51.358;12.412;2022-07-29T09:40:13;7.07;;;2.33;;
34890;SDS011;21103;51.358;12.412;2022-07-29T09:42:40;5.10;;;2.53;;
34890;SDS011;21103;51.358;12.412;2022-07-29T09:45:06;8.57;;;2.30;;
34890;SDS011;21103;51.358;12.412;2022-07-29T09:47:45;5.78;;;2.35;;
34890;SDS011;21103;51.358;12.412;2022-07-29T09:50:14;5.57;;;2.33;;
34890;SDS011;21103;51.358;12.412;2022-07-29T09:52:47;12.18;;;2.70;;
34890;SDS011;21103;51.358;12.412;2022-07-29T09:55:14;4.40;;;2.00;;
34890;SDS011;21103;51.358;12.412;2022-07-29T09:57:40;9.63;;;2.00;;
34890;SDS011;21103;51.358;12.412;2022-07-29T10:00:16;13.18;;;2.53;;
34890;SDS011;21103;51.358;12.412;2022-07-29T10:02:44;4.55;;;1.55;;
34890;SDS011;21103;51.358;12.412;2022-07-29T10:05:18;3.80;;;1.48;;
34890;SDS011;21103;51.358;12.412;2022-07-29T10:07:49;4.82;;;1.73;;
34890;SDS011;21103;51.358;12.412;2022-07-29T10:10:24;4.82;;;2.00;;
34890;SDS011;21103;51.358;12.412;2022-07-29T10:12:57;5.55;;;2.40;;
34890;SDS011;21103;51.358;12.412;2022-07-29T10:15:26;5.57;;;2.00;;
34890;SDS011;21103;51.358;12.412;2022-07-29T10:17:54;4.60;;;1.90;;
34890;SDS011;21103;51.358;12.412;2022-07-29T10:20:21;9.30;;;1.48;;
34890;SDS011;21103;51.358;12.412;2022-07-29T10:22:48;9.20;;;2.20;;
34890;SDS011;21103;51.358;12.412;2022-07-29T10:25:15;4.40;;;1.60;;
34890;SDS011;21103;51.358;12.412;2022-07-29T10:27:42;8.82;;;1.70;;
34890;SDS011;21103;51.358;12.412;2022-07-29T10:30:08;2.80;;;1.63;;
34890;SDS011;21103;51.358;12.412;2022-07-29T10:32:46;3.58;;;1.25;;
34890;SDS011;21103;51.358;12.412;2022-07-29T10:43:46;4.22;;;1.25;;
34890;SDS011;21103;51.358;12.412;2022-07-29T10:46:13;4.82;;;1.35;;
34890;SDS011;21103;51.358;12.412;2022-07-29T10:51:50;3.60;;;1.33;;
34890;SDS011;21103;51.358;12.412;2022-07-29T10:59:46;6.63;;;1.73;;
34890;SDS011;21103;51.358;12.412;2022-07-29T11:05:02;3.05;;;1.20;;
34890;SDS011;21103;51.358;12.412;2022-07-29T11:07:30;2.13;;;0.90;;
34890;SDS011;21103;51.358;12.412;2022-07-29T11:15:08;6.93;;;1.25;;
34890;SDS011;21103;51.358;12.412;2022-07-29T11:18:15;3.83;;;1.02;;
34890;SDS011;21103;51.358;12.412;2022-07-29T11:23:26;7.05;;;1.70;;
34890;SDS011;21103;51.358;12.412;2022-07-29T11:28:53;6.18;;;1.50;;
34890;SDS011;21103;51.358;12.412;2022-07-29T11:31:32;5.03;;;1.25;;
34890;SDS011;21103;51.358;12.412;2022-07-29T11:44:56;3.35;;;1.90;;
34890;SDS011;21103;51.358;12.412;2022-07-29T11:47:24;5.55;;;1.80;;
34890;SDS011;21103;51.358;12.412;2022-07-29T11:49:52;3.90;;;2.10;;
34890;SDS011;21103;51.358;12.412;2022-07-29T11:52:20;3.78;;;2.13;;
34890;SDS011;21103;51.358;12.412;2022-07-29T11:54:49;3.17;;;1.50;;
34890;SDS011;21103;51.358;12.412;2022-07-29T11:57:16;8.48;;;2.17;;
34890;SDS011;21103;51.358;12.412;2022-07-29T11:59:43;8.63;;;1.65;;
34890;SDS011;21103;51.358;12.412;2022-07-29T12:02:11;7.57;;;2.17;;
34890;SDS011;21103;51.358;12.412;2022-07-29T12:04:53;4.88;;;1.90;;
34890;SDS011;21103;51.358;12.412;2022-07-29T12:07:26;5.10;;;1.58;;
34890;SDS011;21103;51.358;12.412;2022-07-29T12:09:56;2.28;;;1.30;;
34890;SDS011;21103;51.358;12.412;2022-07-29T12:12:21;3.13;;;1.55;;
34890;SDS011;21103;51.358;12.412;2022-07-29T12:14:47;4.18;;;1.40;;
34890;SDS011;21103;51.358;12.412;2022-07-29T12:17:29;7.18;;;1.48;;
34890;SDS011;21103;51.358;12.412;2022-07-29T12:20:00;9.57;;;1.58;;
34890;SDS011;21103;51.358;12.412;2022-07-29T12:22:29;5.95;;;1.60;;
34890;SDS011;21103;51.358;12.412;2022-07-29T12:25:03;7.95;;;1.88;;
34890;SDS011;21103;51.358;12.412;2022-07-29T12:27:34;6.10;;;1.83;;
34890;SDS011;21103;51.358;12.412;2022-07-29T12:30:01;4.38;;;1.25;;
34890;SDS011;21103;51.358;12.412;2022-07-29T12:32:34;7.03;;;2.30;;
34890;SDS011;21103;51.358;12.412;2022-07-29T12:35:06;5.63;;;1.70;;
34890;SDS011;21103;51.358;12.412;2022-07-29T12:37:34;4.25;;;1.67;;
34890;SDS011;21103;51.358;12.412;2022-07-29T12:40:02;5.82;;;1.60;;
34890;SDS011;21103;51.358;12.412;2022-07-29T12:42:29;11.00;;;1.70;;
34890;SDS011;21103;51.358;12.412;2022-07-29T12:44:55;5.88;;;2.03;;
34890;SDS011;21103;51.358;12.412;2022-07-29T12:47:20;5.60;;;1.92;;
34890;SDS011;21103;51.358;12.412;2022-07-29T12:49:46;3.08;;;1.80;;
34890;SDS011;21103;51.358;12.412;2022-07-29T12:52:26;5.30;;;2.08;;
34890;SDS011;21103;51.358;12.412;2022-07-29T12:54:53;2.03;;;1.47;;
34890;SDS011;21103;51.358;12.412;2022-07-29T12:57:19;6.43;;;1.42;;
34890;SDS011;21103;51.358;12.412;2022-07-29T12:59:45;7.13;;;1.38;;
34890;SDS011;21103;51.358;12.412;2022-07-29T13:02:23;6.10;;;1.52;;
34890;SDS011;21103;51.358;12.412;2022-07-29T13:04:55;4.60;;;1.70;;
34890;SDS011;21103;51.358;12.412;2022-07-29T13:07:25;7.43;;;1.80;;
34890;SDS011;21103;51.358;12.412;2022-07-29T13:09:53;7.30;;;1.88;;
34890;SDS011;21103;51.358;12.412;2022-07-29T13:12:19;4.25;;;1.27;;
34890;SDS011;21103;51.358;12.412;2022-07-29T13:14:46;8.18;;;2.40;;
34890;SDS011;21103;51.358;12.412;2022-07-29T13:17:20;4.28;;;1.80;;
34890;SDS011;21103;51.358;12.412;2022-07-29T13:19:48;2.55;;;2.10;;
34890;SDS011;21103;51.358;12.412;2022-07-29T13:22:28;4.97;;;2.13;;
34890;SDS011;21103;51.358;12.412;2022-07-29T13:24:55;5.25;;;1.95;;
34890;SDS011;21103;51.358;12.412;2022-07-29T13:27:29;10.07;;;1.90;;
34890;SDS011;21103;51.358;12.412;2022-07-29T13:29:57;6.70;;;1.98;;
34890;SDS011;21103;51.358;12.412;2022-07-29T13:32:25;4.63;;;2.10;;
34890;SDS011;21103;51.358;12.412;2022-07-29T13:34:51;4.60;;;2.00;;
34890;SDS011;21103;51.358;12.412;2022-07-29T13:37:18;2.63;;;1.50;;
34890;SDS011;21103;51.358;12.412;2022-07-29T13:39:43;6.22;;;2.15;;
34890;SDS011;21103;51.358;12.412;2022-07-29T13:42:09;6.20;;;1.75;;
34890;SDS011;21103;51.358;12.412;2022-07-29T13:44:37;5.97;;;1.80;;
34890;SDS011;21103;51.358;12.412;2022-07-29T13:47:03;6.03;;;2.03;;
34890;SDS011;21103;51.358;12.412;2022-07-29T13:49:29;8.98;;;1.60;;
34890;SDS011;21103;51.358;12.412;2022-07-29T13:51:55;13.85;;;1.88;;
34890;SDS011;21103;51.358;12.412;2022-07-29T13:54:20;4.45;;;2.15;;
34890;SDS011;21103;51.358;12.412;2022-07-29T13:56:45;3.58;;;1.85;;
34890;SDS011;21103;51.358;12.412;2022-07-29T13:59:11;4.38;;;2.03;;
34890;SDS011;21103;51.358;12.412;2022-07-29T14:01:38;6.97;;;2.00;;
34890;SDS011;21103;51.358;12.412;2022-07-29T14:04:06;3.75;;;1.65;;
34890;SDS011;21103;51.358;12.412;2022-07-29T14:06:33;5.15;;;1.98;;
34890;SDS011;21103;51.358;12.412;2022-07-29T14:08:58;5.40;;;1.73;;
34890;SDS011;21103;51.358;12.412;2022-07-29T14:11:23;2.63;;;1.70;;
34890;SDS011;21103;51.358;12.412;2022-07-29T14:13:49;5.20;;;1.85;;
34890;SDS011;21103;51.358;12.412;2022-07-29T14:16:15;8.52;;;1.88;;
34890;SDS011;21103;51.358;12.412;2022-07-29T14:18:40;4.97;;;2.42;;
34890;SDS011;21103;51.358;12.412;2022-07-29T14:21:06;6.88;;;1.50;;
34890;SDS011;21103;51.358;12.412;2022-07-29T14:23:31;6.65;;;1.73;;
34890;SDS011;21103;51.358;12.412;2022-07-29T14:25:57;8.07;;;2.15;;
34890;SDS011;21103;51.358;12.412;2022-07-29T14:28:22;4.47;;;2.28;;
34890;SDS011;21103;51.358;12.412;2022-07-29T14:30:48;10.45;;;2.40;;
34890;SDS011;21103;51.358;12.412;2022-07-29T14:33:13;3.58;;;1.77;;
34890;SDS011;21103;51.358;12.412;2022-07-29T14:35:39;3.28;;;1.92;;
34890;SDS011;21103;51.358;12.412;2022-07-29T14:38:04;5.45;;;2.00;;
34890;SDS011;21103;51.358;12.412;2022-07-29T14:40:30;4.85;;;1.58;;
34890;SDS011;21103;51.358;12.412;2022-07-29T14:42:55;7.95;;;1.83;;
34890;SDS011;21103;51.358;12.412;2022-07-29T14:45:21;4.97;;;1.98;;
34890;SDS011;21103;51.358;12.412;2022-07-29T14:47:47;3.25;;;1.80;;
34890;SDS011;21103;51.358;12.412;2022-07-29T14:50:14;5.97;;;1.80;;
34890;SDS011;21103;51.358;12.412;2022-07-29T14:52:39;3.28;;;2.00;;
34890;SDS011;21103;51.358;12.412;2022-07-29T14:55:05;3.15;;;1.80;;
34890;SDS011;21103;51.358;12.412;2022-07-29T14:57:31;7.07;;;1.77;;
34890;SDS011;21103;51.358;12.412;2022-07-29T14:59:56;4.07;;;2.42;;
34890;SDS011;21103;51.358;12.412;2022-07-29T15:02:22;6.53;;;2.10;;
34890;SDS011;21103;51.358;12.412;2022-07-29T15:04:47;4.47;;;2.17;;
34890;SDS011;21103;51.358;12.412;2022-07-29T15:07:13;6.20;;;2.28;;
34890;SDS011;21103;51.358;12.412;2022-07-29T15:09:40;7.03;;;2.78;;
34890;SDS011;21103;51.358;12.412;2022-07-29T15:12:06;8.65;;;2.38;;
34890;SDS011;21103;51.358;12.412;2022-07-29T15:14:32;8.43;;;2.22;;
34890;SDS011;21103;51.358;12.412;2022-07-29T15:16:57;8.57;;;1.83;;
34890;SDS011;21103;51.358;12.412;2022-07-29T15:19:23;3.15;;;2.00;;
34890;SDS011;21103;51.358;12.412;2022-07-29T15:21:48;5.43;;;2.00;;
34890;SDS011;21103;51.358;12.412;2022-07-29T15:24:18;5.18;;;2.20;;
34890;SDS011;21103;51.358;12.412;2022-07-29T15:26:43;4.18;;;2.47;;
34890;SDS011;21103;51.358;12.412;2022-07-29T15:29:09;13.80;;;7.70;;
34890;SDS011;21103;51.358;12.412;2022-07-29T15:31:35;11.10;;;4.25;;